Latest Coastal Weather Observations for Hervey Bay

IDQ60701

Issued at 10:21 pm EST Thursday 5 May 2016 (issued every 10 minutes, with the page automatically refreshed every 10 minutes)

About coastal observations | Map of coastal stations | Coastal observations for QLD | Marine services | Other Formats
Station Details ID: 040405 Name: HERVEY BAY AIRPORT Lat: -25.32 Lon: 152.88 Height: 12.98 m
Data from the previous 72 hours. | See also: Recent months at Hervey Bay
Date/Time
EST
Temp

°C
Wind Pressure Rain
since 9am
mm
Weather Cloud Vis
km
Sea
Height
m
Swell
Dir
 
Speed
knots
Gust
knots
hPa Trend Height
m
Period
s
Dir
05/10:00pm 19.3 SSE 4 6 1018.4 - 0.0 - - 10 - - - -
05/09:30pm 19.1 SSE 4 5 1018.5 - 0.0 - - 10 - - - -
05/09:00pm 20.7 SSE 5 7 1018.7 - 0.0 - - 10 - - - -
05/08:30pm 20.6 SE 4 6 1018.7 - 0.0 - - 10 - - - -
05/08:00pm 21.2 SE 5 6 1018.6 - 0.0 - - 10 - - - -
05/07:30pm 21.3 SE 5 7 1018.5 - 0.0 - - 10 - - - -
05/07:00pm 21.8 SE 5 6 1018.3 - 0.0 - - 10 - - - -
05/06:30pm 21.9 SE 5 6 1017.9 - 0.0 - - 10 - - - -
05/06:00pm 22.5 SE 5 8 1017.5 - 0.0 - - 10 - - - -
05/05:30pm 23.0 SE 6 9 1017.1 - 0.0 - - 10 - - - -
05/05:00pm 23.7 SE 8 14 1017.0 - 0.0 - Partly cloudy 10 - - - -
05/04:30pm 24.4 SE 7 9 1016.8 - 0.0 - - 10 - - - -
05/04:00pm 24.9 SE 9 15 1016.7 - 0.0 - Partly cloudy 10 - - - -
05/03:30pm 24.7 ESE 11 15 1016.5 - 0.0 - Partly cloudy 10 - - - -
05/03:00pm 25.9 SE 9 13 1016.6 - 0.0 - - 10 - - - -
05/02:30pm 26.3 SE 8 14 1016.5 - 0.0 - - 10 - - - -
05/02:00pm 26.5 SE 9 14 1016.9 - 0.0 - - 10 - - - -
05/01:30pm 26.2 ESE 9 13 1016.8 - 0.0 - - 10 - - - -
05/01:00pm 26.9 SE 9 14 1017.0 - 0.0 - - 10 - - - -
05/12:30pm 26.0 ESE 10 13 1017.4 - 0.0 - Partly cloudy 10 - - - -
05/12:00pm 25.9 SE 9 14 1018.0 - 0.0 - Mostly clear 10 - - - -
05/11:30am 25.8 S 8 12 1018.4 - 0.0 - Partly cloudy 10 - - - -
05/11:00am 25.7 SSE 7 11 1018.8 - 0.0 - Partly cloudy 10 - - - -
05/10:30am 25.0 S 7 13 1019.1 - 0.0 - Partly cloudy 10 - - - -
05/10:00am 24.4 S 7 12 1019.5 - 0.0 - - 10 - - - -
05/09:30am 23.7 S 8 12 1019.6 - 0.0 - - 10 - - - -
05/09:00am 22.6 SSW 8 11 1019.6 - 0.2 - - 10 - - - -
05/08:30am 21.0 SSW 7 9 1019.5 - 0.2 - - 10 - - - -
05/08:00am 18.9 SSW 8 10 1019.4 - 0.2 - - 10 - - - -
05/07:30am 18.2 SSW 6 8 1019.2 - 0.2 - - 10 - - - -
05/07:00am 16.7 SSW 7 9 1018.7 - 0.2 - - 10 - - - -
05/06:30am 16.0 SSW 7 9 1018.2 - 0.2 - - 10 - - - -
05/06:00am 16.1 SSW 5 6 1017.9 - 0.2 - - 10 - - - -
05/05:30am 16.1 SSW 6 8 1017.6 - 0.2 - - 10 - - - -
05/05:00am 16.2 SSW 7 9 1017.3 - 0.2 - - 10 - - - -
05/04:30am 16.4 SSW 7 9 1017.2 - 0.2 - - 10 - - - -
05/04:00am 16.6 SSW 7 9 1017.0 - 0.2 - - 10 - - - -
05/03:30am 16.5 SSW 7 9 1016.7 - 0.2 - - 10 - - - -
05/03:00am 16.7 SSW 6 7 1016.7 - 0.2 - - 10 - - - -
05/02:30am 16.9 SSW 6 8 1016.7 - 0.2 - - 10 - - - -
05/02:00am 16.8 SSW 5 7 1016.8 - 0.2 - - 10 - - - -
05/01:30am 17.0 SSW 6 8 1016.9 - 0.2 - - 10 - - - -
05/01:00am 17.0 SSW 6 8 1017.1 - 0.2 - - 10 - - - -
05/12:30am 17.1 SSW 7 8 1017.3 - 0.2 - - 10 - - - -
05/12:00am 16.9 SSW 5 7 1017.4 - 0.2 - - 10 - - - -
 
Date/Time
EST
Temp

°C
Wind Pressure Rain
since 9am
mm
Weather Cloud Vis
km
Sea
Height
m
Swell
Dir
 
Speed
knots
Gust
knots
hPa Trend Height
m
Period
s
Dir
04/11:30pm 16.7 SSW 5 7 1017.6 - 0.2 - - 10 - - - -
04/11:00pm 16.7 SW 3 5 1017.8 - 0.2 - - 10 - - - -
04/10:30pm 16.7 SSW 4 5 1017.9 - 0.2 - - 10 - - - -
04/10:00pm 17.0 SSW 4 5 1018.0 - 0.2 - - 10 - - - -
04/09:30pm 17.5 SSW 4 5 1017.9 - 0.2 - - 10 - - - -
04/09:00pm 18.3 S 3 5 1017.9 - 0.2 - - 10 - - - -
04/08:30pm 18.7 SSW 4 5 1017.7 - 0.2 - - 10 - - - -
04/08:00pm 21.3 SE 6 10 1017.4 - 0.2 - - 10 - - - -
04/07:30pm 21.2 E 6 8 1016.9 - 0.2 - - 10 - - - -
04/07:00pm 21.4 ESE 7 11 1016.5 - 0.2 - - 10 - - - -
04/06:30pm 22.1 ESE 7 10 1016.2 - 0.2 - - 10 - - - -
04/06:00pm 22.7 SE 8 13 1015.7 - 0.2 - - 10 - - - -
04/05:30pm 22.9 SE 9 14 1015.2 - 0.2 - - 10 - - - -
04/05:00pm 23.5 SE 9 13 1014.9 - 0.2 - - 10 - - - -
04/04:30pm 24.0 ESE 9 16 1014.7 - 0.2 - Partly cloudy 10 - - - -
04/04:00pm 25.1 ESE 8 11 1014.5 - 0.2 - Cloudy 10 - - - -
04/03:30pm 25.8 ESE 9 11 1014.2 - 0.2 - Partly cloudy 10 - - - -
04/03:00pm 25.8 ESE 10 14 1013.9 - 0.2 - Cloudy 10 - - - -
04/02:30pm 26.0 SE 6 9 1013.8 - 0.2 - Cloudy 10 - - - -
04/02:00pm 25.8 SE 6 8 1013.7 - 0.2 - Cloudy 10 - - - -
04/01:30pm 26.8 ESE 7 10 1013.7 - 0.2 - - 10 - - - -
04/01:00pm 27.3 S 5 8 1013.9 - 0.2 - - 10 - - - -
04/12:30pm 26.9 S 7 11 1014.0 - 0.2 - - 10 - - - -
04/12:00pm 27.3 SSW 9 15 1014.5 - 0.2 Recent precip. Mostly clear 10 - - - -
04/11:30am 26.3 SSW 8 15 1014.6 - 0.2 - - 10 - - - -
04/11:00am 25.2 S 9 15 1015.0 - 0.0 - - 10 - - - -
04/10:30am 24.2 SSW 11 16 1015.4 - 0.0 - - 10 - - - -
04/10:00am 22.9 SSW 7 11 1015.7 - 0.0 - - 10 - - - -
04/09:30am 22.4 SSW 5 7 1016.3 - 0.0 - - 10 - - - -
04/09:00am 21.8 SSW 7 9 1016.5 - 0.2 - Cloudy 10 - - - -
04/08:30am 21.6 SSW 6 8 1016.2 - 0.2 - Partly cloudy 10 - - - -
04/08:00am 21.5 SSW 5 6 1015.8 - 0.2 - Partly cloudy 10 - - - -
04/07:30am 21.6 SSW 7 10 1015.4 - 0.2 - Partly cloudy 10 - - - -
04/07:00am 22.2 SSW 4 6 1015.0 - 0.2 - Cloudy 10 - - - -
04/06:30am 22.2 SW 4 5 1014.6 - 0.2 - Partly cloudy 7 - - - -
04/06:07am 21.7 CALM 0 0 1014.3 - 0.2 - Partly cloudy 6 - - - -
04/06:00am 21.9 CALM 0 0 1014.1 - 0.2 - Cloudy 6 - - - -
04/05:56am 21.8 CALM 0 0 1014.1 - 0.2 - - 5 - - - -
04/05:30am 22.1 SW 2 4 1013.4 - 0.2 - Partly cloudy 7 - - - -
04/05:00am 21.8 CALM 0 0 1013.3 - 0.2 - Partly cloudy 6 - - - -
04/04:30am 21.3 CALM 0 0 1012.9 - 0.2 - - 6 - - - -
04/04:00am 21.9 CALM 0 0 1012.7 - 0.2 - - 6 - - - -
04/03:30am 21.8 CALM 0 0 1012.6 - 0.2 - - 6 - - - -
04/03:00am 22.3 CALM 0 0 1012.5 - 0.2 - Cloudy 7 - - - -
04/02:30am 22.5 CALM 0 0 1012.6 - 0.2 - Partly cloudy 6 - - - -
04/02:28am 22.5 CALM 0 0 1012.7 - 0.2 - Partly cloudy 6 - - - -
04/02:17am 22.6 CALM 0 0 1012.7 - 0.2 - Partly cloudy 5 - - - -
04/02:11am 22.6 CALM 0 0 1012.9 - 0.2 - Partly cloudy 5 - - - -
04/02:00am 22.9 CALM 0 0 1012.9 - 0.2 - Partly cloudy 9 - - - -
04/01:30am 23.1 CALM 0 3 1012.9 - 0.2 - Partly cloudy 10 - - - -
04/01:00am 23.5 SSW 3 5 1013.1 - 0.2 - Partly cloudy 10 - - - -
04/12:54am 23.5 SSW 3 4 1013.1 - 0.2 - Partly cloudy 10 - - - -
04/12:37am 23.7 SSW 3 5 1013.2 - 0.2 - - 5 - - - -
04/12:30am 23.9 SW 4 5 1013.1 - 0.2 - - 8 - - - -
04/12:00am 24.3 WNW 5 8 1013.3 - 0.2 - Cloudy 10 - - - -
 
Date/Time
EST
Temp

°C
Wind Pressure Rain
since 9am
mm
Weather Cloud Vis
km
Sea
Height
m
Swell
Dir
 
Speed
knots
Gust
knots
hPa Trend Height
m
Period
s
Dir
03/11:30pm 24.3 NNW 6 9 1013.2 - 0.2 - - 10 - - - -
03/11:00pm 24.5 NNW 7 8 1013.1 - 0.2 - - 10 - - - -
03/10:30pm 24.4 NNW 7 8 1013.4 - 0.2 - - 10 - - - -
03/10:00pm 24.5 NNW 7 9 1013.5 - 0.2 - - 10 - - - -
03/09:30pm 24.6 NNW 7 10 1013.5 - 0.2 - - 10 - - - -
03/09:00pm 24.5 NNW 8 10 1013.5 - 0.2 - Cloudy 10 - - - -
03/08:30pm 24.5 NNW 7 9 1013.6 - 0.2 - - 10 - - - -
03/08:00pm 24.5 NNW 6 9 1013.5 - 0.2 - - 10 - - - -
03/07:30pm 24.4 NNW 5 8 1013.1 - 0.2 - - 10 - - - -
03/07:00pm 24.4 N 5 7 1012.8 - 0.2 - - 10 - - - -
03/06:30pm 24.3 N 5 8 1012.4 - 0.2 - - 10 - - - -
03/06:00pm 24.3 N 6 7 1012.0 - 0.2 - Partly cloudy 10 - - - -
03/05:30pm 24.4 N 5 7 1011.6 - 0.2 - - 10 - - - -
03/05:00pm 24.6 N 6 8 1011.4 - 0.2 - - 10 - - - -
03/04:30pm 25.1 N 7 9 1011.2 - 0.2 - - 10 - - - -
03/04:00pm 25.3 N 6 9 1011.2 - 0.2 - - 10 - - - -
03/03:30pm 25.4 N 8 11 1011.1 - 0.2 - - 10 - - - -
03/03:00pm 25.8 N 8 11 1010.9 - 0.2 - - 10 - - - -
03/02:30pm 27.2 N 9 11 1010.8 - 0.2 - - 10 - - - -
03/02:00pm 27.7 N 8 10 1010.9 - 0.2 - - 10 - - - -
03/01:30pm 27.7 N 8 11 1011.2 - 0.2 - - 10 - - - -
03/01:00pm 26.7 N 8 10 1011.7 - 0.2 - - 10 - - - -
03/12:30pm 26.1 N 6 9 1012.0 - 0.2 - - 10 - - - -
03/12:00pm 27.0 NNW 7 8 1012.7 - 0.2 - Mostly clear 10 - - - -
03/11:30am 26.7 N 5 8 1013.1 - 0.2 - - 10 - - - -
03/11:00am 26.3 NNW 5 7 1013.8 - 0.2 - - 10 - - - -
03/10:30am 25.8 NW 5 6 1014.2 - 0.0 - - 10 - - - -
03/10:00am 25.1 N 3 5 1014.3 - 0.0 - Cloudy 10 - - - -
03/09:30am 24.7 NNW 4 7 1014.5 - 0.0 - Partly cloudy 10 - - - -
03/09:00am 24.8 N 5 6 1014.8 - 8.8 - Cloudy 10 - - - -
03/08:30am 24.6 NW 2 4 1014.8 - 8.8 - Partly cloudy 10 - - - -
03/08:00am 23.9 NNW 4 5 1014.8 - 8.8 - - 10 - - - -
03/07:30am 23.0 CALM 0 0 1014.7 - 8.8 - - 10 - - - -
03/07:00am 22.0 CALM 0 0 1014.4 - 8.8 - Partly cloudy 10 - - - -
03/06:30am 21.3 CALM 0 0 1014.0 - 8.8 - Partly cloudy 9 - - - -
03/06:00am 21.6 WSW 3 6 1014.1 - 8.8 - Cloudy 10 - - - -
03/05:30am 21.3 SSE 2 3 1013.3 - 8.8 - - 9 - - - -
03/05:00am 22.1 CALM 0 0 1013.0 - 8.8 - Cloudy 9 - - - -
03/04:30am 22.5 CALM 0 0 1013.1 - 8.8 - Cloudy 10 - - - -
03/04:00am 22.1 SSE 1 4 1013.1 - 8.8 - Partly cloudy 8 - - - -
03/03:30am 22.3 SSE 3 4 1013.4 - 8.8 - Partly cloudy 10 - - - -
03/03:00am 22.4 CALM 0 0 1013.6 - 8.8 - Cloudy 10 - - - -
03/02:30am 22.5 CALM 0 0 1014.1 - 8.8 - Partly cloudy 10 - - - -
03/02:00am 22.7 SSW 4 7 1014.2 - 8.8 - Partly cloudy 10 - - - -
03/01:58am 22.5 S 5 10 1014.2 - 8.8 - Partly cloudy 10 - - - -
03/01:33am 23.0 NNE 2 7 1014.5 - 3.0 - Partly cloudy 4 - - - -
03/01:30am 22.9 CALM 0 0 1014.4 - 0.2 - Partly cloudy 10 - - - -
03/01:14am 22.8 CALM 0 0 1014.7 - 0.2 - Partly cloudy 10 - - - -
03/01:00am 22.8 CALM 0 0 1014.8 - 0.2 - Partly cloudy 10 - - - -
03/12:30am 23.1 NNE 1 3 1014.9 - 0.2 - Partly cloudy 10 - - - -
03/12:00am 22.9 NNE 4 5 1014.8 - 0.2 - Cloudy 10 - - - -
 
Date/Time
EST
Temp

°C
Wind Pressure Rain
since 9am
mm
Weather Cloud Vis
km
Sea
Height
m
Swell
Dir
 
Speed
knots
Gust
knots
hPa Trend Height
m
Period
s
Dir
02/11:50pm 23.1 NNE 4 5 1015.1 - 0.2 - Partly cloudy 10 - - - -
02/11:30pm 22.7 WNW 1 3 1015.2 - 0.2 - Partly cloudy 10 - - - -
02/11:00pm 22.4 WNW 3 4 1015.5 - 0.2 - Partly cloudy 10 - - - -
02/10:57pm 22.6 WNW 3 4 1015.5 - 0.2 - Partly cloudy 10 - - - -
02/10:30pm 23.4 ENE 4 6 1015.5 - 0.2 - - 10 - - - -

Other Formats:

Comma delimited format used in spreadsheet applications
http://www.bom.gov.au/fwo/IDQ60701/IDQ60701.95565.axf

JavaScript Object Notation format (JSON) in row-major order
http://www.bom.gov.au/fwo/IDQ60701/IDQ60701.95565.json